Time;durP1;ratioP1;P1;durP2;ratioP2;P2;SDS_P1;SDS_P2;PMS_P1;PMS_P2;Temp;Humidity;BMP_temperature;BMP_pressure;BME280_temperature;BME280_humidity;BME280_pressure;Samples;Min_cycle;Max_cycle;Signal;HPM_P1;HPM_P2
2023/03/20 00:01:57;;;;;;;4.65;3.75;;;;;;;8.21;100.00;98606.72;4157487;28;20128;-74
2023/03/20 00:03:57;;;;;;;6.35;4.18;;;;;;;8.24;100.00;98608.75;4156962;28;20520;-74
2023/03/20 00:05:58;;;;;;;5.10;3.90;;;;;;;8.19;100.00;98606.25;4157974;28;20055;-74
2023/03/20 00:07:58;;;;;;;5.35;3.90;;;;;;;8.18;100.00;98602.72;4157692;28;20040;-74
2023/03/20 00:09:59;;;;;;;4.82;3.80;;;;;;;8.16;100.00;98602.28;4156997;28;20033;-73
2023/03/20 00:11:59;;;;;;;6.53;4.43;;;;;;;8.17;100.00;98601.13;4157363;28;20423;-74
2023/03/20 00:14:02;;;;;;;5.78;4.30;;;;;;;8.18;100.00;98602.72;4156522;28;20490;-74
2023/03/20 00:16:04;;;;;;;5.53;3.92;;;;;;;8.22;100.00;98607.53;4157215;28;20535;-74
2023/03/20 00:18:17;;;;;;;5.10;4.23;;;;;;;8.21;100.00;98603.16;4156360;28;20112;-73
2023/03/20 00:20:18;;;;;;;6.78;4.20;;;;;;;8.20;100.00;98602.38;4157371;28;20097;-73
2023/03/20 00:22:18;;;;;;;5.55;4.50;;;;;;;8.19;100.00;98606.25;4155409;28;20069;-73
2023/03/20 00:24:19;;;;;;;5.60;4.15;;;;;;;8.21;100.00;98614.19;4156071;28;20324;-74
2023/03/20 00:26:23;;;;;;;7.03;4.10;;;;;;;8.24;100.00;98610.72;4157430;28;20091;-73
2023/03/20 00:28:47;;;;;;;4.28;3.88;;;;;;;8.14;100.00;98612.88;4157032;28;20172;-74
2023/03/20 00:30:47;;;;;;;4.78;4.32;;;;;;;8.15;100.00;98617.22;4157610;28;20592;-73
2023/03/20 00:32:49;;;;;;;7.22;4.05;;;;;;;8.14;100.00;98614.81;4155523;28;20045;-74
2023/03/20 00:34:49;;;;;;;4.40;4.00;;;;;;;8.12;100.00;98608.88;4156931;28;20039;-74
2023/03/20 00:36:51;;;;;;;6.07;4.22;;;;;;;8.09;100.00;98604.88;4156690;28;20080;-73
2023/03/20 00:38:51;;;;;;;4.53;4.07;;;;;;;8.06;100.00;98604.78;4156411;28;20045;-74
2023/03/20 00:40:52;;;;;;;5.47;4.00;;;;;;;8.01;100.00;98611.38;4157780;28;20069;-73
2023/03/20 00:42:57;;;;;;;7.05;4.43;;;;;;;7.98;100.00;98605.78;4155661;28;20512;-74
2023/03/20 00:44:59;;;;;;;4.47;3.90;;;;;;;7.93;100.00;98601.34;4156908;28;20060;-74
2023/03/20 00:47:03;;;;;;;6.20;4.18;;;;;;;7.88;100.00;98607.94;4157037;28;20034;-74
2023/03/20 00:49:03;;;;;;;5.15;4.10;;;;;;;7.80;100.00;98602.59;4156867;28;20045;-73
2023/03/20 00:51:04;;;;;;;4.60;3.90;;;;;;;7.78;100.00;98607.69;4157399;28;20140;-73
2023/03/20 00:53:05;;;;;;;4.57;3.63;;;;;;;7.76;100.00;98618.22;4155178;28;20052;-73
2023/03/20 00:55:06;;;;;;;4.65;3.80;;;;;;;7.72;100.00;98614.59;4156704;28;20041;-73
2023/03/20 00:57:08;;;;;;;5.60;3.83;;;;;;;7.68;100.00;98613.69;4157069;28;20041;-73
2023/03/20 00:59:15;;;;;;;6.88;4.20;;;;;;;7.61;100.00;98611.56;4156763;28;20047;-74
2023/03/20 01:01:16;;;;;;;4.88;3.55;;;;;;;7.59;100.00;98608.38;4157180;28;20044;-74
2023/03/20 01:03:25;;;;;;;4.55;3.63;;;;;;;7.54;100.00;98614.16;4156109;28;20038;-74
2023/03/20 01:05:26;;;;;;;6.88;4.07;;;;;;;7.54;100.00;98609.44;4156608;28;20448;-73
2023/03/20 01:07:27;;;;;;;6.07;3.95;;;;;;;7.57;100.00;98618.94;4156371;28;20068;-73
2023/03/20 01:09:27;;;;;;;4.93;4.13;;;;;;;7.54;100.00;98623.22;4156679;28;20045;-73
2023/03/20 01:11:28;;;;;;;4.60;3.80;;;;;;;7.51;100.00;98618.41;4156148;28;20091;-73
2023/03/20 01:13:29;;;;;;;4.40;4.00;;;;;;;7.49;100.00;98614.41;4156732;28;20188;-74
2023/03/20 01:15:32;;;;;;;4.97;3.65;;;;;;;7.47;100.00;98620.28;4157835;28;20230;-73
2023/03/20 01:17:32;;;;;;;7.70;4.13;;;;;;;7.46;100.00;98617.88;4157645;28;20045;-73
2023/03/20 01:19:32;;;;;;;4.85;4.00;;;;;;;7.46;100.00;98623.38;4157570;28;20029;-73
2023/03/20 01:21:32;;;;;;;5.43;4.20;;;;;;;7.44;100.00;98623.72;4157044;28;20049;-73
2023/03/20 01:23:33;;;;;;;4.90;3.70;;;;;;;7.43;100.00;98615.81;4156397;28;20069;-73
2023/03/20 01:25:34;;;;;;;4.35;3.95;;;;;;;7.37;100.00;98600.75;4157884;28;20122;-73
2023/03/20 01:27:34;;;;;;;4.97;3.97;;;;;;;7.39;100.00;98613.00;4157485;28;20537;-73
2023/03/20 01:29:34;;;;;;;4.07;3.67;;;;;;;7.37;100.00;98615.31;4157455;28;20054;-73
2023/03/20 01:31:35;;;;;;;7.60;4.35;;;;;;;7.36;100.00;98618.38;4157437;28;20191;-74
2023/03/20 01:33:35;;;;;;;5.72;4.20;;;;;;;7.40;100.00;98627.53;4156811;28;20142;-73
2023/03/20 01:35:36;;;;;;;5.97;4.57;;;;;;;7.42;100.00;98625.22;4157006;28;20038;-73
2023/03/20 01:37:36;;;;;;;6.55;4.15;;;;;;;7.35;100.00;98630.53;4157456;28;20505;-74
2023/03/20 01:39:37;;;;;;;4.68;3.92;;;;;;;7.30;100.00;98626.91;4157429;28;20065;-73
2023/03/20 01:41:38;;;;;;;6.47;4.60;;;;;;;7.28;100.00;98631.97;4157102;28;20049;-73
2023/03/20 01:43:39;;;;;;;5.03;4.13;;;;;;;7.31;100.00;98622.22;4156471;28;20042;-73
2023/03/20 01:45:51;;;;;;;5.80;4.40;;;;;;;7.28;100.00;98623.72;4157659;28;20049;-73
2023/03/20 01:47:51;;;;;;;5.53;4.30;;;;;;;7.26;100.00;98620.50;4157495;28;20119;-73
2023/03/20 01:50:21;;;;;;;5.82;4.40;;;;;;;7.29;100.00;98632.78;4157313;28;20038;-73
2023/03/20 01:52:21;;;;;;;5.95;4.50;;;;;;;7.31;100.00;98630.47;4153558;28;20442;-73
2023/03/20 01:54:27;;;;;;;7.55;4.40;;;;;;;7.33;100.00;98620.69;4156814;28;20088;-73
2023/03/20 01:56:31;;;;;;;7.70;4.38;;;;;;;7.35;100.00;98622.28;4157501;28;20312;-73
2023/03/20 01:58:37;;;;;;;5.82;4.75;;;;;;;7.41;100.00;98631.91;4157129;28;20037;-74
2023/03/20 02:00:38;;;;;;;7.15;4.95;;;;;;;7.41;100.00;98621.69;4157076;28;20061;-73
2023/03/20 02:02:39;;;;;;;6.30;4.82;;;;;;;7.42;100.00;98630.75;4156755;28;20064;-73
2023/03/20 02:04:44;;;;;;;8.30;4.82;;;;;;;7.42;100.00;98627.97;4157329;28;20120;-73
2023/03/20 02:06:45;;;;;;;6.35;4.60;;;;;;;7.42;100.00;98630.75;4160347;28;20053;-73
2023/03/20 02:08:50;;;;;;;6.32;4.80;;;;;;;7.41;100.00;98621.69;4160425;28;20050;-73
2023/03/20 02:10:52;;;;;;;7.47;4.50;;;;;;;7.47;100.00;98628.53;4160100;28;20417;-73
2023/03/20 02:12:54;;;;;;;8.02;6.13;;;;;;;7.47;100.00;98627.75;4159382;28;20044;-73
2023/03/20 02:14:55;;;;;;;8.38;6.18;;;;;;;7.45;100.00;98627.31;4160536;28;20501;-73
2023/03/20 02:16:55;;;;;;;10.15;6.15;;;;;;;7.45;100.00;98632.81;4159800;28;20040;-73
2023/03/20 02:18:57;;;;;;;6.15;5.18;;;;;;;7.40;100.00;98630.31;4160055;28;20038;-73
2023/03/20 02:21:15;;;;;;;9.75;5.15;;;;;;;7.38;100.00;98622.41;4160205;28;20328;-73
2023/03/20 02:23:25;;;;;;;7.22;5.82;;;;;;;7.36;100.00;98630.19;4159005;28;20045;-73
2023/03/20 02:25:43;;;;;;;7.78;5.05;;;;;;;7.32;100.00;98621.84;4159755;28;20081;-73
2023/03/20 02:27:52;;;;;;;9.20;5.70;;;;;;;7.34;100.00;98624.25;4159556;28;20073;-73
2023/03/20 02:30:23;;;;;;;6.03;5.45;;;;;;;7.37;100.00;98625.50;4160372;28;20045;-74
2023/03/20 02:32:42;;;;;;;8.75;6.00;;;;;;;7.38;100.00;98614.16;4159182;28;20053;-73
2023/03/20 02:34:42;;;;;;;6.60;4.88;;;;;;;7.36;100.00;98612.88;4160030;28;20069;-73
2023/03/20 02:36:57;;;;;;;8.82;5.53;;;;;;;7.37;100.00;98617.25;4191211;28;20516;-73
2023/03/20 02:39:12;;;;;;;11.02;5.72;;;;;;;7.37;100.00;98609.78;4159682;28;20092;-73
2023/03/20 02:41:31;;;;;;;9.20;6.15;;;;;;;7.32;100.00;98613.59;4159899;28;20089;-73
2023/03/20 02:43:37;;;;;;;7.60;5.57;;;;;;;7.30;100.00;98615.91;4159325;28;20048;-73
2023/03/20 02:45:46;;;;;;;7.28;5.45;;;;;;;7.29;100.00;98611.56;4159821;28;20128;-73
2023/03/20 02:47:58;;;;;;;7.22;5.80;;;;;;;7.29;100.00;98614.31;4159240;28;20045;-73
2023/03/20 02:50:11;;;;;;;9.20;6.32;;;;;;;7.28;100.00;98615.47;4158943;28;20085;-73
2023/03/20 02:52:29;;;;;;;8.60;6.68;;;;;;;7.25;100.00;98607.91;4159550;28;20080;-73
2023/03/20 02:54:58;;;;;;;6.93;5.55;;;;;;;7.25;100.00;98610.66;4159607;28;20404;-73
2023/03/20 02:57:15;;;;;;;9.10;6.20;;;;;;;7.23;100.00;98610.22;4152690;28;20083;-73
2023/03/20 02:59:18;;;;;;;9.50;6.35;;;;;;;7.25;100.00;98618.91;4159168;28;20033;-73
2023/03/20 03:01:35;;;;;;;10.40;6.43;;;;;;;7.27;100.00;98622.09;4159375;28;20090;-73
2023/03/20 03:03:41;;;;;;;8.27;6.55;;;;;;;7.29;100.00;98617.06;4158382;28;20045;-73
2023/03/20 03:05:48;;;;;;;7.88;6.60;;;;;;;7.30;100.00;98618.66;4159536;28;20297;-73
2023/03/20 03:07:51;;;;;;;9.35;7.03;;;;;;;7.28;100.00;98615.47;4159374;28;20233;-73
2023/03/20 03:09:57;;;;;;;10.32;6.93;;;;;;;7.30;100.00;98610.41;4159801;28;20489;-73
2023/03/20 03:12:08;;;;;;;10.82;7.15;;;;;;;7.29;100.00;98616.25;4159823;28;20038;-73
2023/03/20 03:14:18;;;;;;;9.15;6.75;;;;;;;7.27;100.00;98613.03;4158375;28;20439;-74
2023/03/20 03:16:24;;;;;;;7.55;5.72;;;;;;;7.27;100.00;98613.03;4158529;28;20112;-73
2023/03/20 03:18:26;;;;;;;8.70;6.78;;;;;;;7.30;100.00;98620.63;4158044;28;20523;-73
2023/03/20 03:20:33;;;;;;;8.63;6.53;;;;;;;7.27;100.00;98618.53;4159397;28;20381;-73
2023/03/20 03:22:35;;;;;;;7.85;5.97;;;;;;;7.25;100.00;98613.41;4158843;28;20100;-74
2023/03/20 03:24:38;;;;;;;8.50;5.80;;;;;;;7.31;100.00;98622.22;4190517;28;20170;-73
2023/03/20 03:26:41;;;;;;;7.53;5.55;;;;;;;7.28;100.00;98618.22;4159463;28;20403;-74
2023/03/20 03:28:49;;;;;;;8.45;5.82;;;;;;;7.31;100.00;98622.22;4158637;28;20509;-73
2023/03/20 03:30:52;;;;;;;8.85;6.07;;;;;;;7.30;100.00;98621.41;4159142;28;20466;-73
2023/03/20 03:32:59;;;;;;;;;;;;;;;7.32;100.00;98623.81;4158391;28;20040;-73
2023/03/20 03:35:01;;;;;;;7.13;5.18;;;;;;;7.37;100.00;98625.50;4158998;28;20495;-73
2023/03/20 03:37:46;;;;;;;7.57;5.60;;;;;;;7.36;100.00;98627.44;4158688;28;20063;-73
2023/03/20 03:39:57;;;;;;;8.40;6.53;;;;;;;7.31;100.00;98631.25;4153171;28;20045;-73
2023/03/20 03:42:38;;;;;;;7.70;5.60;;;;;;;7.27;100.00;98622.09;4158968;28;20389;-73
2023/03/20 03:44:53;;;;;;;6.63;5.75;;;;;;;7.24;100.00;98625.56;4158384;28;20120;-73
2023/03/20 03:47:06;;;;;;;8.40;5.68;;;;;;;7.21;100.00;98625.47;4189950;28;20082;-73
2023/03/20 03:49:11;;;;;;;8.48;7.15;;;;;;;7.19;100.00;98627.75;4158646;28;20041;-73
2023/03/20 03:51:16;;;;;;;8.70;6.53;;;;;;;7.12;100.00;98631.16;4158998;28;20053;-73
2023/03/20 03:53:22;;;;;;;10.35;6.68;;;;;;;7.06;100.00;98624.28;4157828;28;20643;-73
2023/03/20 03:55:26;;;;;;;9.32;6.30;;;;;;;7.04;100.00;98638.41;4158579;28;20118;-73
2023/03/20 03:57:32;;;;;;;9.15;7.32;;;;;;;7.02;100.00;98634.38;4158902;28;21247;-73
2023/03/20 03:59:39;;;;;;;7.30;5.95;;;;;;;7.02;100.00;98637.13;4158762;28;20053;-73
2023/03/20 04:01:43;;;;;;;7.57;5.65;;;;;;;7.03;100.00;98644.22;4157935;28;20057;-73
2023/03/20 04:03:49;;;;;;;8.43;6.13;;;;;;;7.06;100.00;98642.75;4157084;28;20493;-73
2023/03/20 04:05:53;;;;;;;7.80;5.75;;;;;;;7.10;100.00;98638.13;4157270;28;20516;-73
2023/03/20 04:07:56;;;;;;;7.20;5.80;;;;;;;7.12;100.00;98642.16;4158413;28;20147;-73
2023/03/20 04:09:57;;;;;;;8.32;6.47;;;;;;;7.16;100.00;98642.22;4158526;28;20514;-73
2023/03/20 04:11:57;;;;;;;7.40;6.28;;;;;;;7.17;100.00;98646.59;4157923;28;20069;-73
2023/03/20 04:13:57;;;;;;;7.53;5.88;;;;;;;7.24;100.00;98649.53;4157919;28;20080;-73
2023/03/20 04:15:58;;;;;;;7.65;6.15;;;;;;;7.27;100.00;98646.88;4157637;28;20080;-73
2023/03/20 04:17:58;;;;;;;8.52;6.47;;;;;;;7.28;100.00;98651.25;4158041;28;20107;-73
2023/03/20 04:19:59;;;;;;;9.20;6.80;;;;;;;7.33;100.00;98652.94;4158662;28;20057;-73
2023/03/20 04:21:59;;;;;;;9.77;6.95;;;;;;;7.37;100.00;98653.03;4158131;28;20079;-73
2023/03/20 04:24:00;;;;;;;8.85;6.28;;;;;;;7.38;100.00;98655.44;4157418;28;20127;-73
2023/03/20 04:26:01;;;;;;;10.48;6.88;;;;;;;7.40;100.00;98653.13;4158267;28;20049;-73
2023/03/20 04:28:01;;;;;;;8.63;6.75;;;;;;;7.43;100.00;98655.16;4157569;28;20100;-73
2023/03/20 04:30:01;;;;;;;8.15;6.65;;;;;;;7.42;100.00;98647.25;4157847;28;20045;-73
2023/03/20 04:32:02;;;;;;;13.57;7.30;;;;;;;7.51;100.00;98658.91;4157767;28;20369;-73
2023/03/20 04:34:02;;;;;;;10.95;7.63;;;;;;;7.51;100.00;98651.44;4157662;28;20037;-73
2023/03/20 04:36:03;;;;;;;12.27;7.43;;;;;;;7.52;100.00;98653.03;4158269;28;20026;-73
2023/03/20 04:38:03;;;;;;;11.23;7.57;;;;;;;7.53;100.00;98653.84;4158309;28;20120;-73
2023/03/20 04:40:04;;;;;;;12.68;8.38;;;;;;;7.57;100.00;98658.28;4158321;28;20076;-73
2023/03/20 04:42:05;;;;;;;11.23;7.97;;;;;;;7.61;100.00;98650.13;4157649;28;20100;-73
2023/03/20 04:44:05;;;;;;;8.52;6.82;;;;;;;7.64;100.00;98667.91;4157124;28;20457;-73
2023/03/20 04:46:06;;;;;;;9.80;7.43;;;;;;;7.60;100.00;98652.06;4158763;28;20121;-73
2023/03/20 04:48:07;;;;;;;10.20;6.75;;;;;;;7.63;100.00;98658.84;4157668;28;20052;-73
2023/03/20 04:50:08;;;;;;;8.70;6.60;;;;;;;7.58;100.00;98653.59;4157750;28;20033;-73
2023/03/20 04:52:08;;;;;;;9.70;6.53;;;;;;;7.59;100.00;98653.22;4157479;28;20053;-73
2023/03/20 04:54:09;;;;;;;8.38;6.65;;;;;;;7.58;100.00;98648.06;4157710;28;20466;-74
2023/03/20 04:56:09;;;;;;;12.63;8.13;;;;;;;7.57;100.00;98655.53;4157247;28;20029;-73
2023/03/20 04:58:09;;;;;;;9.38;7.50;;;;;;;7.55;100.00;98646.84;4157658;28;20075;-73
2023/03/20 05:00:10;;;;;;;10.98;7.47;;;;;;;7.58;100.00;98657.13;4157624;28;20021;-73
2023/03/20 05:02:13;;;;;;;14.77;9.55;;;;;;;7.59;100.00;98652.44;4157210;28;20132;-73
2023/03/20 05:04:14;;;;;;;12.18;8.55;;;;;;;7.60;100.00;98654.03;4157103;28;20080;-73
2023/03/20 05:06:14;;;;;;;9.98;6.88;;;;;;;7.62;100.00;98664.72;4158146;28;20030;-73
2023/03/20 05:08:15;;;;;;;8.80;7.03;;;;;;;7.62;100.00;98657.25;4157786;28;20041;-73
2023/03/20 05:10:15;;;;;;;10.43;7.18;;;;;;;7.60;100.00;98657.56;4157835;28;20446;-73
2023/03/20 05:12:16;;;;;;;8.98;7.13;;;;;;;7.60;100.00;98654.81;4157468;28;20041;-73
2023/03/20 05:14:16;;;;;;;8.68;5.57;;;;;;;7.63;100.00;98661.59;4156755;28;20033;-74
2023/03/20 05:16:17;;;;;;;8.23;6.45;;;;;;;7.65;100.00;98661.22;4158629;28;20454;-73
2023/03/20 05:18:17;;;;;;;9.48;7.22;;;;;;;7.67;100.00;98673.50;4157511;28;20102;-73
2023/03/20 05:20:17;;;;;;;11.05;7.78;;;;;;;7.68;100.00;98666.03;4157568;28;20024;-74
2023/03/20 05:22:18;;;;;;;10.95;7.63;;;;;;;7.69;100.00;98662.91;4157605;28;20033;-73
2023/03/20 05:24:18;;;;;;;11.13;7.93;;;;;;;7.69;100.00;98671.16;4156806;28;20021;-73
2023/03/20 05:26:19;;;;;;;11.60;7.82;;;;;;;7.71;100.00;98668.88;4157393;28;20042;-74
2023/03/20 05:28:19;;;;;;;10.23;7.30;;;;;;;7.73;100.00;98668.53;4157125;28;20430;-73
2023/03/20 05:30:19;;;;;;;12.35;7.88;;;;;;;7.76;100.00;98667.81;4157467;28;20355;-73
2023/03/20 05:32:20;;;;;;;9.05;6.88;;;;;;;7.76;100.00;98671.34;4157483;28;20041;-73
2023/03/20 05:34:20;;;;;;;9.10;7.28;;;;;;;7.74;100.00;98673.69;4157185;28;20056;-73
2023/03/20 05:36:21;;;;;;;10.07;7.20;;;;;;;7.74;100.00;98667.38;4157543;28;20053;-73
2023/03/20 05:38:21;;;;;;;12.50;6.72;;;;;;;7.72;100.00;98676.00;4156719;28;20474;-73
2023/03/20 05:40:24;;;;;;;8.43;6.57;;;;;;;7.74;100.00;98672.88;4158218;28;20079;-73
2023/03/20 05:42:24;;;;;;;;;;;;;;;7.74;100.00;98673.69;4161105;28;20478;-73
2023/03/20 05:44:24;;;;;;;10.02;7.90;;;;;;;7.75;100.00;98669.75;4159888;28;19952;-73
2023/03/20 05:46:25;;;;;;;9.98;7.75;;;;;;;7.76;100.00;98673.31;4160644;28;20060;-73
2023/03/20 05:48:25;;;;;;;14.38;7.35;;;;;;;7.76;100.00;98673.31;4160963;28;20314;-73
2023/03/20 05:50:26;;;;;;;11.90;7.10;;;;;;;7.78;100.00;98682.03;4160043;28;20049;-73
2023/03/20 05:52:26;;;;;;;10.73;7.78;;;;;;;7.77;100.00;98675.72;4160276;28;20033;-73
2023/03/20 05:54:26;;;;;;;11.75;8.35;;;;;;;7.74;100.00;98672.88;4160069;28;20523;-73
2023/03/20 05:56:27;;;;;;;10.82;8.05;;;;;;;7.74;100.00;98673.69;4150668;28;20819;-73
2023/03/20 05:58:27;;;;;;;15.95;8.05;;;;;;;7.74;100.00;98679.19;4169720;28;20447;-73
2023/03/20 06:00:27;;;;;;;11.35;7.80;;;;;;;7.72;100.00;98681.50;4160060;28;20046;-73
2023/03/20 06:02:28;;;;;;;11.77;7.60;;;;;;;7.71;100.00;98671.63;4160304;28;20044;-73
2023/03/20 06:04:28;;;;;;;10.43;7.47;;;;;;;7.74;100.00;98681.13;4159926;28;20131;-73
2023/03/20 06:06:28;;;;;;;11.02;7.97;;;;;;;7.75;100.00;98663.47;4160645;28;20090;-73
2023/03/20 06:08:31;;;;;;;10.35;7.80;;;;;;;7.79;100.00;98672.63;4160674;28;20482;-73
2023/03/20 06:10:32;;;;;;;10.93;8.00;;;;;;;7.78;100.00;98674.59;4160160;28;20045;-73
2023/03/20 06:12:32;;;;;;;12.75;8.52;;;;;;;7.85;100.00;98679.44;4158423;28;22132;-73
2023/03/20 06:14:32;;;;;;;10.55;7.90;;;;;;;7.86;100.00;98678.28;4159584;28;20046;-73
2023/03/20 06:16:33;;;;;;;11.05;8.20;;;;;;;7.87;100.00;98680.72;4160361;28;20041;-73
2023/03/20 06:18:33;;;;;;;19.95;14.50;;;;;;;7.88;100.00;98684.25;4159705;28;20045;-72
2023/03/20 06:20:33;;;;;;;16.42;12.85;;;;;;;7.88;100.00;98682.31;4160093;28;20072;-73
2023/03/20 06:22:34;;;;;;;17.42;14.25;;;;;;;7.88;100.00;98679.56;4159977;28;20493;-73
2023/03/20 06:24:34;;;;;;;20.00;15.45;;;;;;;7.91;100.00;98680.00;4159627;28;20052;-73
2023/03/20 06:26:35;;;;;;;14.55;11.48;;;;;;;7.93;100.00;98689.50;4159740;28;20045;-73
2023/03/20 06:28:36;;;;;;;16.05;11.27;;;;;;;7.94;100.00;98682.81;4159870;28;20107;-73
2023/03/20 06:30:36;;;;;;;13.93;10.65;;;;;;;7.99;100.00;98679.81;4160062;28;20042;-73
2023/03/20 06:32:37;;;;;;;19.13;12.63;;;;;;;8.04;100.00;98685.06;4158992;28;20049;-73
2023/03/20 06:34:37;;;;;;;20.50;13.98;;;;;;;8.07;100.00;98681.59;4159542;28;20046;-73
2023/03/20 06:36:37;;;;;;;21.55;14.35;;;;;;;8.11;100.00;98684.44;4159840;28;20254;-73
2023/03/20 06:38:38;;;;;;;16.55;12.55;;;;;;;8.12;100.00;98680.53;4159051;28;20477;-73
2023/03/20 06:40:38;;;;;;;17.33;11.15;;;;;;;8.17;100.00;98683.00;4158733;28;20044;-73
2023/03/20 06:42:39;;;;;;;13.55;9.80;;;;;;;8.20;100.00;98684.25;4159456;28;20470;-73
2023/03/20 06:44:39;;;;;;;13.10;9.18;;;;;;;8.24;100.00;98676.88;4159359;28;20049;-73
2023/03/20 06:46:39;;;;;;;13.38;9.05;;;;;;;8.27;100.00;98687.97;4158842;28;20095;-73
2023/03/20 06:48:40;;;;;;;25.30;15.20;;;;;;;8.33;100.00;98694.81;4159248;28;20692;-73
2023/03/20 06:50:40;;;;;;;21.23;13.07;;;;;;;8.37;100.00;98695.75;4157997;28;20041;-73
2023/03/20 06:52:40;;;;;;;27.63;16.23;;;;;;;8.44;100.00;98706.13;4157877;28;20386;-73
2023/03/20 06:54:41;;;;;;;29.45;16.35;;;;;;;8.48;100.00;98695.97;4159338;28;20124;-73
2023/03/20 06:56:41;;;;;;;19.38;12.00;;;;;;;8.59;100.00;98698.97;4158899;28;20044;-73
2023/03/20 06:58:41;;;;;;;19.80;11.98;;;;;;;8.65;100.00;98703.06;4158940;28;20106;-73
2023/03/20 07:00:42;;;;;;;18.75;11.75;;;;;;;8.70;100.00;98697.28;4159606;28;20045;-73
2023/03/20 07:02:43;;;;;;;20.48;11.25;;;;;;;8.73;100.00;98696.53;4159325;28;20068;-72
2023/03/20 07:04:43;;;;;;;22.77;11.98;;;;;;;8.81;100.00;98698.31;4159305;28;20072;-72
2023/03/20 07:06:44;;;;;;;21.10;12.60;;;;;;;8.87;100.00;98694.09;4159337;28;20051;-72
2023/03/20 07:08:44;;;;;;;20.27;13.38;;;;;;;9.01;100.00;98701.88;4159842;28;20054;-73
2023/03/20 07:10:44;;;;;;;19.63;12.18;;;;;;;9.07;100.00;98702.38;4158820;28;20044;-72
2023/03/20 07:12:45;;;;;;;21.25;12.30;;;;;;;9.14;100.00;98697.03;4158854;28;20042;-73
2023/03/20 07:14:45;;;;;;;17.45;10.52;;;;;;;9.17;100.00;98708.13;4159602;28;20289;-73
2023/03/20 07:16:45;;;;;;;14.93;9.88;;;;;;;9.25;100.00;98706.31;4159882;28;20045;-72
2023/03/20 07:18:46;;;;;;;17.63;10.65;;;;;;;9.28;100.00;98716.66;4159155;28;20221;-72
2023/03/20 07:20:46;;;;;;;19.63;11.65;;;;;;;9.29;100.00;98702.47;4159199;28;20598;-72
2023/03/20 07:22:47;;;;;;;17.55;9.70;;;;;;;9.35;100.00;98707.69;4158929;28;20076;-72
2023/03/20 07:24:48;;;;;;;13.70;9.50;;;;;;;9.36;100.00;98703.78;4158924;28;20080;-72
2023/03/20 07:26:48;;;;;;;11.93;7.90;;;;;;;9.42;100.00;98711.38;4159520;28;20045;-72
2023/03/20 07:28:48;;;;;;;12.30;7.55;;;;;;;9.44;100.00;98709.09;4159833;28;20806;-72
2023/03/20 07:30:48;;;;;;;9.98;7.40;;;;;;;9.47;100.00;98708.34;4159014;28;20147;-72
2023/03/20 07:32:49;;;;;;;11.43;7.32;;;;;;;9.52;100.00;98702.53;4157938;28;20493;-72
2023/03/20 07:34:49;;;;;;;10.27;7.45;;;;;;;9.54;100.00;98704.91;4159428;28;20048;-73
2023/03/20 07:36:50;;;;;;;10.02;7.10;;;;;;;9.55;100.00;98704.56;4159029;28;20130;-73
2023/03/20 07:38:50;;;;;;;9.98;7.22;;;;;;;9.62;100.00;98711.38;4158591;28;20044;-73
2023/03/20 07:40:53;;;;;;;13.13;8.05;;;;;;;9.68;100.00;98712.66;4159048;28;20270;-72
2023/03/20 07:42:53;;;;;;;11.00;7.75;;;;;;;9.71;100.00;98709.19;4158350;28;20045;-72
2023/03/20 07:44:54;;;;;;;11.73;8.15;;;;;;;9.72;100.00;98719.06;4158680;28;20037;-72
2023/03/20 07:46:54;;;;;;;12.98;8.50;;;;;;;9.72;100.00;98716.31;4159109;28;20041;-72
2023/03/20 07:48:56;;;;;;;12.98;8.40;;;;;;;9.74;100.00;98720.28;4158819;28;20779;-73
2023/03/20 07:50:57;;;;;;;13.07;8.88;;;;;;;9.73;100.00;98724.22;4159299;28;20037;-73
2023/03/20 07:52:57;;;;;;;16.92;9.65;;;;;;;9.74;100.00;98730.53;4157963;28;20067;-73
2023/03/20 07:54:58;;;;;;;15.15;8.82;;;;;;;9.65;100.00;98725.25;4157955;28;20049;-73
2023/03/20 07:56:58;;;;;;;13.60;8.60;;;;;;;9.66;100.00;98723.28;4159269;28;20045;-72
2023/03/20 07:58:58;;;;;;;13.63;9.07;;;;;;;9.61;100.00;98718.88;4158323;28;20051;-72
2023/03/20 08:00:58;;;;;;;14.52;8.25;;;;;;;9.65;100.00;98721.69;4155526;28;20394;-72
2023/03/20 08:02:59;;;;;;;16.48;9.07;;;;;;;9.65;100.00;98727.22;4157765;28;20037;-72
2023/03/20 08:04:59;;;;;;;17.80;11.10;;;;;;;9.66;100.00;98726.03;4157616;28;20088;-72
2023/03/20 08:07:00;;;;;;;15.45;9.57;;;;;;;9.66;100.00;98731.56;4158057;28;20053;-73
2023/03/20 08:09:00;;;;;;;13.98;9.00;;;;;;;9.64;100.00;98729.19;4156985;28;20037;-73
2023/03/20 08:11:01;;;;;;;16.48;9.43;;;;;;;9.71;100.00;98723.78;4157702;28;20065;-73
2023/03/20 08:13:01;;;;;;;12.02;7.97;;;;;;;9.80;100.00;98721.59;4156753;28;20124;-73
2023/03/20 08:15:01;;;;;;;14.77;9.73;;;;;;;9.75;100.00;98730.16;4158649;28;20057;-73
2023/03/20 08:17:02;;;;;;;13.95;9.27;;;;;;;9.81;100.00;98733.44;4157709;28;20236;-73
2023/03/20 08:19:04;;;;;;;11.23;7.32;;;;;;;9.87;100.00;98733.94;4157092;28;20768;-73
2023/03/20 08:21:04;;;;;;;12.80;8.30;;;;;;;9.87;100.00;98734.75;4157500;28;20380;-73
2023/03/20 08:23:05;;;;;;;10.85;8.15;;;;;;;9.88;100.00;98733.56;4156839;28;20096;-73
2023/03/20 08:25:07;;;;;;;13.25;9.35;;;;;;;9.92;100.00;98726.13;4157339;28;20071;-73
2023/03/20 08:27:07;;;;;;;12.85;9.63;;;;;;;9.90;100.00;98728.47;4156634;28;20056;-72
2023/03/20 08:29:08;;;;;;;14.82;10.93;;;;;;;9.86;100.00;98727.63;4156946;28;20034;-73
2023/03/20 08:31:08;;;;;;;21.92;16.30;;;;;;;9.83;100.00;98731.09;4156892;28;20056;-73
2023/03/20 08:33:09;;;;;;;18.35;14.00;;;;;;;9.80;100.00;98734.63;4155786;28;20099;-73
2023/03/20 08:35:10;;;;;;;14.25;11.25;;;;;;;9.78;100.00;98731.44;4156648;28;20115;-73
2023/03/20 08:37:11;;;;;;;15.38;10.30;;;;;;;9.72;100.00;98727.34;4156417;28;20239;-73
2023/03/20 08:39:11;;;;;;;13.90;9.23;;;;;;;9.71;100.00;98736.81;4156664;28;20497;-73
2023/03/20 08:41:11;;;;;;;15.48;10.68;;;;;;;9.72;100.00;98730.91;4156414;28;20033;-73
2023/03/20 08:43:12;;;;;;;16.70;11.02;;;;;;;9.71;100.00;98734.84;4155778;28;20042;-73
2023/03/20 08:45:12;;;;;;;18.20;11.43;;;;;;;9.67;100.00;98733.16;4156983;28;20061;-73
2023/03/20 08:47:13;;;;;;;16.45;10.93;;;;;;;9.68;100.00;98740.28;4156445;28;20573;-72
2023/03/20 08:49:14;;;;;;;16.95;11.48;;;;;;;9.66;100.00;98735.13;4156402;28;20319;-73
2023/03/20 08:51:15;;;;;;;14.88;10.57;;;;;;;9.70;100.00;98746.28;4156706;28;20375;-73
2023/03/20 08:53:15;;;;;;;15.73;9.90;;;;;;;9.74;100.00;98747.91;4155035;28;20036;-73
2023/03/20 08:55:16;;;;;;;14.48;10.35;;;;;;;9.76;100.00;98758.59;4156477;28;20121;-72
2023/03/20 08:57:16;;;;;;;15.20;10.02;;;;;;;9.73;100.00;98746.31;4156598;28;20077;-73
2023/03/20 08:59:18;;;;;;;13.05;9.98;;;;;;;9.79;100.00;98750.41;4156173;28;20045;-72
2023/03/20 09:01:18;;;;;;;14.00;9.60;;;;;;;9.83;100.00;98758.75;4156513;28;20095;-72
2023/03/20 09:03:19;;;;;;;14.52;9.38;;;;;;;9.80;100.00;98745.66;4155292;28;20041;-73
2023/03/20 09:05:20;;;;;;;15.95;10.65;;;;;;;9.81;100.00;98753.59;4156473;28;20060;-72
2023/03/20 09:07:21;;;;;;;14.07;9.18;;;;;;;9.85;100.00;98745.38;4155787;28;20033;-72
2023/03/20 09:09:28;;;;;;;13.93;10.18;;;;;;;9.84;100.00;98741.00;4156133;28;20045;-73
2023/03/20 09:11:28;;;;;;;16.65;10.45;;;;;;;9.93;100.00;98749.88;4155422;28;20156;-72
2023/03/20 09:13:28;;;;;;;15.27;10.30;;;;;;;9.97;100.00;98747.16;4155424;28;20072;-73
2023/03/20 09:15:29;;;;;;;15.40;10.18;;;;;;;9.97;100.00;98747.16;4154657;28;20108;-73
2023/03/20 09:17:30;;;;;;;17.17;10.80;;;;;;;9.99;100.00;98753.09;4156229;28;20049;-73
2023/03/20 09:19:30;;;;;;;16.60;10.98;;;;;;;9.97;100.00;98753.47;4155953;28;20046;-73
2023/03/20 09:21:31;;;;;;;19.75;12.15;;;;;;;9.98;100.00;98749.53;4156068;28;20038;-73
2023/03/20 09:23:31;;;;;;;18.40;11.93;;;;;;;9.99;100.00;98753.09;4155680;28;20523;-73
2023/03/20 09:25:32;;;;;;;18.67;11.43;;;;;;;10.01;100.00;98751.59;4115579;28;1156338;-72
2023/03/20 09:27:32;;;;;;;17.70;10.80;;;;;;;9.98;100.00;98749.53;4156965;28;20637;-73
2023/03/20 09:29:32;;;;;;;18.58;11.00;;;;;;;9.95;100.00;98755.81;4156709;28;20461;-72
2023/03/20 09:31:33;;;;;;;20.45;12.30;;;;;;;9.95;100.00;98763.31;4156904;28;20450;-72
2023/03/20 09:33:33;;;;;;;19.38;11.35;;;;;;;9.97;100.00;98772.84;4154826;28;20053;-73
2023/03/20 09:35:33;;;;;;;17.63;11.35;;;;;;;9.93;100.00;98773.91;4156092;28;20045;-73